Jordy Lang

Olheiro - ADO Den Haag
22 Fev 2028
Terça-feira
Processo

Personalidade

Adaptabilidade (7) Ambição (17) Controvérsia (2) Lealdade (9) Pressão (7) Profissionalismo (19) Espírito Esportivo (15) Temperamento (11)

Perfil

Estilo de Treinamento Democrático
Licença Nacional B
Determinação 11
Gestão de Pessoas 12
Motivação 9
Disciplina 5
Satisfação no Trabalho
100%
Fadiga
0%
Função Olheiro
Salário 30.9K p/s
Contrato 14.03.2029

Desempenho

Comportamento Bom
Eficácia do Treinamento
41%
Desenvolvimento do Jogador
30%
Prevenção de Lesões
55%
Implementação Tática
60%

Eventos Recentes

Participou de uma reunião de recrutamento 14d atrás
Participou de uma reunião de recrutamento 21d atrás
Apresentou um dossiê à direção 21d atrás
Participou de uma reunião de recrutamento 28d atrás
Recomendou um alvo de transferência 28d atrás
Apresentou um dossiê à direção 28d atrás
Participando de desenvolvimento profissional 35d atrás
Participando de desenvolvimento profissional 35d atrás

Monitorando agora

58
Jogador Clube Status Habilidade Confiança Observado Última observação Último voto
Jorrit Smeets NEC Perdido 107 / 101 72% 1 24.01.2028 Aprovar
Taiga Hata Sint-Truiden Ativo 119 / 121 40% 3 30.12.2026 -
Pol Lozano Espanyol Ativo 142 / 151 40% 2 30.12.2026 -
Myron van Brederode KV Mechelen Ativo 123 / 131 40% 3 29.12.2026 -
Tyrhys Dolan Espanyol Ativo 146 / 146 40% 1 29.12.2026 -
Iker Benito Queretaro Ativo 122 / 117 40% 1 29.12.2026 -
Maksim Kireev KV Mechelen Ativo 111 / 128 40% 3 27.12.2026 -
Gaspar Gijón Ativo 136 / 125 40% 2 27.12.2026 -
Tiago Araújo KAA Gent Ativo 116 / 121 40% 2 25.12.2026 -
Pablo Torre Mallorca Ativo 138 / 132 40% 1 25.12.2026 -
Cisse Sandra Westerlo Ativo 116 / 103 40% 3 24.12.2026 -
Matisse Samoise KAA Gent Ativo 117 / 112 40% 2 24.12.2026 -
Kwame Poku Queens Park Rangers Ativo 121 / 131 40% 1 24.12.2026 -
Jakob Napoleon Romsaas Charleroi Ativo 112 / 126 40% 2 20.12.2026 -
Łukasz Łakomy OH Leuven Ativo 112 / 129 40% 2 15.12.2026 -
Jan Virgili Club Brugge Ativo 126 / 142 40% 3 12.12.2026 -
Aimar Osasuna Ativo 143 / 146 40% 1 12.12.2026 -
Tristan Degreef Anderlecht Ativo 120 / 119 40% 2 11.12.2026 -
Ilias Sebaoui Sint-Truiden Ativo 126 / 123 40% 4 11.12.2026 -
Ali Ahmed Norwich City Ativo 132 / 126 40% 1 10.12.2026 -
Yannick Vanaken KV Oostende Ativo 132 / 140 40% 1 10.12.2026 -
Tom Fellows Southampton Ativo 136 / 121 40% 2 06.12.2026 -
Welington Southampton Ativo 135 / 127 40% 1 05.12.2026 -
Thomas Claes Zulte Waregem Ativo 120 / 114 40% 1 29.11.2026 -
Emi Rodriguez Leon Ativo 128 / 140 40% 1 29.11.2026 -
Eric Ramires Bragantino Ativo 131 / 136 40% 1 23.11.2026 -
Isa Sakamoto Westerlo Ativo 117 / 101 40% 1 23.11.2026 -
Leonardo Lopes KAA Gent Ativo 113 / 109 40% 1 18.11.2026 -
Giacomo Raspadori Atalanta Ativo 143 / 146 40% 1 18.11.2026 -
Stanley Mills Oxford United Ativo 118 / 132 40% 1 17.11.2026 -
Mardochée Nzita Charleroi Ativo 123 / 113 40% 1 17.11.2026 -
Ruben van Bommel Ferencvaros Ativo 125 / 156 40% 1 16.11.2026 -
Mateo Chávez AZ Ativo 125 / 121 40% 1 16.11.2026 -
Adriano Bertaccini Anderlecht Ativo 121 / 117 40% 3 11.11.2026 -
Thibaud Verlinden OH Leuven Ativo 123 / 127 40% 2 06.11.2026 -
Ilay Camara Anderlecht Ativo 128 / 142 40% 3 06.11.2026 -
Chris Lokesa Waasland-Beveren Ativo 118 / 132 40% 1 06.11.2026 -
Othmane Maamma Watford Ativo 128 / 137 40% 1 03.11.2026 -
Léandre Kuavita Waasland-Beveren Ativo 122 / 108 40% 1 30.10.2026 -
Mario Stroeykens Anderlecht Ativo 131 / 125 40% 2 29.10.2026 -
Nayel Mehssatou KV Kortrijk Ativo 107 / 124 40% 2 27.10.2026 -
Jeppe Erenbjerg Racing Genk Ativo 124 / 120 40% 1 27.10.2026 -
Robert-Jan Vanwesemael Sint-Truiden Ativo 111 / 107 40% 3 26.10.2026 -
Christian Tielemans KV Oostende Ativo 147 / 141 40% 1 26.10.2026 -
Reda Khadra Qarabag Ativo 141 / 147 40% 1 23.10.2026 -
Matteo Dams Club Brugge Ativo 129 / 131 40% 1 23.10.2026 -
Abdelkahar Kadri KAA Gent Ativo 119 / 138 40% 2 20.10.2026 -
Georginio Rutter Brighton Ativo 139 / 148 40% 1 17.10.2026 -
Yira Sor Racing Genk Ativo 116 / 120 40% 1 17.10.2026 -
Rémi Lemoine Chamois Niortais Ativo 154 / 156 40% 1 15.10.2026 -
Bart van Rooij Twente Ativo 141 / 143 40% 1 15.10.2026 -
Marquinhos Spartak Moscow Ativo 141 / 145 40% 1 13.10.2026 -
Scott Twine Bristol City Ativo 121 / 118 40% 1 11.10.2026 -
Aimé Omgba KAA Gent Ativo 117 / 118 40% 1 11.10.2026 -
Alexis Cuello San Lorenzo Ativo 124 / 105 40% 1 08.10.2026 -
Kevin Amaro Racing Genk Ativo 116 / 139 40% 1 08.10.2026 -
Thomas Van Den Keybus Westerlo Ativo 121 / 101 40% 1 05.10.2026 -
Luka Jovanović San Jose Earthquakes Ativo 96 / 118 40% 1 03.08.2026 -